Institution
Deeter Investments LLP
CIK 0001675711 - 2025Q4 report dated 2025-12-31
Shown positions
100
Shown market value
$467,674,258
Net value change
+$467,674,258
100 changed positions shown
Latest filing
0001214659-26-011085Largest reported increase
RBSPF
ISHARES TR
+$54,928,840
Largest reported decrease
No negative value changes shown.
Latest 13F holdings
Top reported positions by market value. 13F filings are delayed and may not reflect current holdings.
| Ticker | Issuer | Value | Shares | Change | Value change | Report |
|---|---|---|---|---|---|---|
| RBSPF | ISHARES TR 464287234 | $54,928,840 | 1,004,000 | NEW new | +$54,928,840 | 2025-12-31SEC filing |
| GOOGL | ALPHABET INC 02079K305 | $42,071,582 | 134,414 | NEW new | +$42,071,582 | 2025-12-31SEC filing |
| TSM | TAIWAN SEMICONDUCTOR MFG 874039100 | $27,350,100 | 90,000 | NEW new | +$27,350,100 | 2025-12-31SEC filing |
| ASML | ASML HOLDING N V N07059210 | $24,049,383 | 22,479 | NEW new | +$24,049,383 | 2025-12-31SEC filing |
| AVGO | BROADCOM INC 11135F101 | $19,706,588 | 56,939 | NEW new | +$19,706,588 | 2025-12-31SEC filing |
| ADBE | ADOBE INC 00724F101 | $17,359,504 | 49,600 | NEW new | +$17,359,504 | 2025-12-31SEC filing |
| PWR | QUANTA SVCS INC 74762E102 | $15,112,702 | 35,807 | NEW new | +$15,112,702 | 2025-12-31SEC filing |
| VALE | VALE S A 91912E105 | $14,904,639 | 1,143,871 | NEW new | +$14,904,639 | 2025-12-31SEC filing |
| BOXX | EA SERIES TRUST 02072L565 | $14,152,236 | 122,956 | NEW new | +$14,152,236 | 2025-12-31SEC filing |
| MU | MICRON TECHNOLOGY INC 595112103 | $13,985,946 | 49,003 | NEW new | +$13,985,946 | 2025-12-31SEC filing |
| GEV | GE VERNOVA INC 36828A101 | $13,071,400 | 20,000 | NEW new | +$13,071,400 | 2025-12-31SEC filing |
| FXI | ISHARES TR 464287184 | $11,487,000 | 300,000 | NEW new | +$11,487,000 | 2025-12-31SEC filing |
| BABA | ALIBABA GROUP HLDG LTD 01609W102 | $10,729,656 | 73,200 | NEW new | +$10,729,656 | 2025-12-31SEC filing |
| WDC | WESTERN DIGITAL CORP 958102105 | $10,562,563 | 61,314 | NEW new | +$10,562,563 | 2025-12-31SEC filing |
| NEE | NEXTERA ENERGY INC 65339F101 | $9,391,636 | 116,986 | NEW new | +$9,391,636 | 2025-12-31SEC filing |
| BCI | ABRDN ETFS 003261104 | $9,343,152 | 478,400 | NEW new | +$9,343,152 | 2025-12-31SEC filing |
| LMND | LEMONADE INC 52567D107 | $7,900,980 | 111,000 | NEW new | +$7,900,980 | 2025-12-31SEC filing |
| XLP | SELECT SECTOR SPDR TR 81369Y308 | $7,756,000 | 50,000 | NEW new | +$7,756,000 | 2025-12-31SEC filing |
| CNP | CENTERPOINT ENERGY INC 15189T107 | $7,668,000 | 200,000 | NEW new | +$7,668,000 | 2025-12-31SEC filing |
| RKLB | ROCKET LAB CORP 773121108 | $7,617,792 | 109,200 | NEW new | +$7,617,792 | 2025-12-31SEC filing |
| SNDK | SANDISK CORP 80004C200 | $7,129,708 | 30,035 | NEW new | +$7,129,708 | 2025-12-31SEC filing |
| GDX | VANECK ETF TRUST 92189F106 | $6,715,791 | 78,300 | NEW new | +$6,715,791 | 2025-12-31SEC filing |
| Unmapped | NU HLDGS LTD G6683N103 | $6,696,000 | 400,000 | NEW new | +$6,696,000 | 2025-12-31SEC filing |
| BBIO | BRIDGEBIO PHARMA INC 10806X102 | $6,348,670 | 83,000 | NEW new | +$6,348,670 | 2025-12-31SEC filing |
| CYTK | CYTOKINETICS INC 23282W605 | $6,273,876 | 98,739 | NEW new | +$6,273,876 | 2025-12-31SEC filing |